createdAt,value
2017-12-03T00:02:15.854Z,74.50
2017-12-03T00:04:43.403Z,74.30
2017-12-03T00:07:10.880Z,74.20
2017-12-03T00:09:38.329Z,74.30
2017-12-03T00:12:05.782Z,74.00
2017-12-03T00:14:33.464Z,74.00
2017-12-03T00:17:00.998Z,74.10
2017-12-03T00:22:08.321Z,74.10
2017-12-03T00:24:35.865Z,74.50
2017-12-03T00:27:03.411Z,74.40
2017-12-03T00:29:31.124Z,74.50
2017-12-03T00:31:59.074Z,74.30
2017-12-03T00:34:26.737Z,74.10
2017-12-03T00:36:55.006Z,74.20
2017-12-03T00:39:22.486Z,74.20
2017-12-03T00:41:49.930Z,74.30
2017-12-03T00:44:18.126Z,74.30
2017-12-03T00:46:46.381Z,74.60
2017-12-03T00:49:13.835Z,74.60
2017-12-03T00:51:41.494Z,77.90
2017-12-03T00:54:08.984Z,86.10
2017-12-03T00:56:37.313Z,78.40
2017-12-03T00:59:04.762Z,74.40
2017-12-03T01:01:32.685Z,72.70
2017-12-03T01:04:00.975Z,72.40
2017-12-03T01:06:29.212Z,72.50
2017-12-03T01:08:56.668Z,72.30
2017-12-03T01:11:24.187Z,72.60
2017-12-03T01:13:52.498Z,72.90
2017-12-03T01:16:20.838Z,73.20
2017-12-03T01:18:48.309Z,73.30
2017-12-03T01:21:15.762Z,73.60
2017-12-03T01:23:43.242Z,73.80
2017-12-03T01:26:11.109Z,74.10
2017-12-03T01:28:38.776Z,74.40
2017-12-03T01:31:06.225Z,74.70
2017-12-03T01:33:33.701Z,75.10
2017-12-03T01:36:01.224Z,75.50
2017-12-03T01:38:28.697Z,75.60
2017-12-03T01:40:56.145Z,75.90
2017-12-03T01:43:24.048Z,76.00
2017-12-03T01:45:52.273Z,76.10
2017-12-03T01:48:19.725Z,76.00
2017-12-03T01:50:47.586Z,76.10
2017-12-03T01:53:15.886Z,76.20
2017-12-03T01:55:43.937Z,76.20
2017-12-03T01:58:11.494Z,76.20
2017-12-03T02:00:39.027Z,76.50
2017-12-03T02:03:07.233Z,77.20
2017-12-03T02:05:34.746Z,76.50
2017-12-03T02:08:02.963Z,76.20
2017-12-03T02:10:30.562Z,76.20
2017-12-03T02:12:58.752Z,76.40
2017-12-03T02:15:27.686Z,76.00
2017-12-03T02:17:55.124Z,76.00
2017-12-03T02:20:22.596Z,76.00
2017-12-03T02:22:50.049Z,75.90
2017-12-03T02:25:17.582Z,75.60
2017-12-03T02:27:45.897Z,75.90
2017-12-03T02:30:13.992Z,75.90
2017-12-03T02:32:41.477Z,75.90
2017-12-03T02:35:09.825Z,76.10
2017-12-03T02:37:37.272Z,76.00
2017-12-03T02:40:04.729Z,75.90
2017-12-03T02:42:32.705Z,76.20
2017-12-03T02:45:00.551Z,76.40
2017-12-03T02:47:28.198Z,76.10
2017-12-03T02:49:56.242Z,76.50
2017-12-03T02:52:24.268Z,76.40
2017-12-03T02:54:51.750Z,76.50
2017-12-03T02:57:19.816Z,76.60
2017-12-03T02:59:48.172Z,76.40
2017-12-03T03:02:15.642Z,76.10
2017-12-03T03:04:43.595Z,76.20
2017-12-03T03:07:11.029Z,76.20
2017-12-03T03:09:38.960Z,76.20
2017-12-03T03:12:06.419Z,76.20
2017-12-03T03:14:34.724Z,76.30
2017-12-03T03:17:02.314Z,76.20
2017-12-03T03:19:29.948Z,76.30
2017-12-03T03:21:57.434Z,76.50
2017-12-03T03:24:24.898Z,76.90
2017-12-03T03:26:52.381Z,77.10
2017-12-03T03:29:20.632Z,77.40
2017-12-03T03:31:48.239Z,77.40
2017-12-03T03:34:15.691Z,77.60
2017-12-03T03:36:43.364Z,77.60
2017-12-03T03:39:12.053Z,77.20
2017-12-03T03:41:39.622Z,77.10
2017-12-03T03:44:08.528Z,77.50
2017-12-03T03:46:36.163Z,77.60
2017-12-03T03:49:04.822Z,77.60
2017-12-03T03:51:33.661Z,78.00
2017-12-03T03:54:01.509Z,78.00
2017-12-03T03:56:29.629Z,77.70
2017-12-03T03:58:57.889Z,77.40
2017-12-03T04:01:25.453Z,77.40
2017-12-03T04:03:53.692Z,77.50
2017-12-03T04:06:21.581Z,77.50
2017-12-03T04:08:49.045Z,77.40
2017-12-03T04:11:17.113Z,77.10
2017-12-03T04:13:44.569Z,77.10
2017-12-03T04:16:12.128Z,77.20
2017-12-03T04:18:39.572Z,77.00
2017-12-03T04:21:07.173Z,77.00
2017-12-03T04:23:35.779Z,76.80
2017-12-03T04:26:03.246Z,76.80
2017-12-03T04:28:30.785Z,76.80
2017-12-03T04:30:58.230Z,76.80
2017-12-03T04:33:25.780Z,76.50
2017-12-03T04:35:53.277Z,76.80
2017-12-03T04:38:20.805Z,77.10
2017-12-03T04:40:48.292Z,77.00
2017-12-03T04:43:18.138Z,77.00
2017-12-03T04:45:45.588Z,76.70
2017-12-03T04:48:13.414Z,77.00
2017-12-03T04:50:41.274Z,76.70
2017-12-03T04:53:08.918Z,76.80
2017-12-03T04:55:37.129Z,77.00
2017-12-03T04:58:05.120Z,77.00
2017-12-03T05:00:33.270Z,77.10
2017-12-03T05:03:00.905Z,76.90
2017-12-03T05:05:28.357Z,76.80
2017-12-03T05:07:56.561Z,77.00
2017-12-03T05:10:24.221Z,77.00
2017-12-03T05:12:51.678Z,76.80
2017-12-03T05:15:19.232Z,76.90
2017-12-03T05:17:46.690Z,77.10
2017-12-03T05:20:14.329Z,76.90
2017-12-03T05:22:42.552Z,76.90
2017-12-03T05:25:10.001Z,76.80
2017-12-03T05:27:37.564Z,76.90
2017-12-03T05:30:05.025Z,76.90
2017-12-03T05:32:33.011Z,77.00
2017-12-03T05:35:00.612Z,77.10
2017-12-03T05:37:28.048Z,77.30
2017-12-03T05:39:56.463Z,77.30
2017-12-03T05:42:23.933Z,77.20
2017-12-03T05:44:51.990Z,77.30
2017-12-03T05:47:19.448Z,77.40
2017-12-03T05:49:47.373Z,77.40
2017-12-03T05:52:15.625Z,77.80
2017-12-03T05:54:43.693Z,77.80
2017-12-03T05:57:11.549Z,77.60
2017-12-03T05:59:39.156Z,77.70
2017-12-03T06:02:06.656Z,77.80
2017-12-03T06:04:34.126Z,78.00
2017-12-03T06:07:01.622Z,77.60
2017-12-03T06:09:29.836Z,77.40
2017-12-03T06:11:57.391Z,77.40
2017-12-03T06:14:25.020Z,77.50
2017-12-03T06:16:52.754Z,77.40
2017-12-03T06:19:20.201Z,77.10
2017-12-03T06:21:47.648Z,77.20
2017-12-03T06:24:15.389Z,77.10
2017-12-03T06:26:42.864Z,76.80
2017-12-03T06:29:10.404Z,77.00
2017-12-03T06:31:37.844Z,77.10
2017-12-03T06:34:05.482Z,77.00
2017-12-03T06:36:34.452Z,77.20
2017-12-03T06:39:01.929Z,77.10
2017-12-03T06:41:30.765Z,77.20
2017-12-03T06:43:58.660Z,77.10
2017-12-03T06:46:26.103Z,77.30
2017-12-03T06:48:53.641Z,77.40
2017-12-03T06:51:21.529Z,77.50
2017-12-03T06:53:49.013Z,77.90
2017-12-03T06:56:17.235Z,78.00
2017-12-03T06:58:45.137Z,77.80
2017-12-03T07:01:12.581Z,78.10
2017-12-03T07:03:40.766Z,77.90
2017-12-03T07:06:08.253Z,77.70
2017-12-03T07:08:36.469Z,77.70
2017-12-03T07:11:04.168Z,77.70
2017-12-03T07:13:31.612Z,77.80
2017-12-03T07:15:59.267Z,77.80
2017-12-03T07:18:26.715Z,78.00
2017-12-03T07:20:54.261Z,78.10
2017-12-03T07:23:24.851Z,78.00
2017-12-03T07:25:53.269Z,78.60
2017-12-03T07:28:20.824Z,78.50
2017-12-03T07:30:49.253Z,78.90
2017-12-03T07:33:17.481Z,79.00
2017-12-03T07:35:45.169Z,78.90
2017-12-03T07:38:12.685Z,78.90
2017-12-03T07:40:40.614Z,79.00
2017-12-03T07:43:08.905Z,78.80
2017-12-03T07:45:37.114Z,79.00
2017-12-03T07:48:04.599Z,79.00
2017-12-03T07:50:32.282Z,79.10
2017-12-03T07:52:59.728Z,79.20
2017-12-03T07:55:27.216Z,79.30
2017-12-03T07:57:55.884Z,79.00
2017-12-03T08:00:24.766Z,79.70
2017-12-03T08:02:53.213Z,79.20
2017-12-03T08:05:20.905Z,79.00
2017-12-03T08:07:48.384Z,79.30
2017-12-03T08:10:17.112Z,79.50
2017-12-03T08:12:44.584Z,79.50
2017-12-03T08:15:12.980Z,79.60
2017-12-03T08:17:40.680Z,79.60
2017-12-03T08:20:08.211Z,79.80
2017-12-03T08:22:35.673Z,79.70
2017-12-03T08:25:05.261Z,79.70
2017-12-03T08:27:32.708Z,79.70
2017-12-03T08:30:00.192Z,79.80
2017-12-03T08:32:28.519Z,79.70
2017-12-03T08:34:56.297Z,80.00
2017-12-03T08:37:23.743Z,80.00
2017-12-03T08:39:52.656Z,79.60
2017-12-03T08:42:20.190Z,79.60
2017-12-03T08:44:48.199Z,79.60
2017-12-03T08:47:15.664Z,79.70
2017-12-03T08:49:44.937Z,80.10
2017-12-03T08:52:12.415Z,79.80
2017-12-03T08:54:39.952Z,80.00
2017-12-03T08:57:07.457Z,80.30
2017-12-03T08:59:35.456Z,79.90
2017-12-03T09:02:03.708Z,79.70
2017-12-03T09:04:31.185Z,79.80
2017-12-03T09:06:58.701Z,79.90
2017-12-03T09:09:26.925Z,80.00
2017-12-03T09:11:54.395Z,80.00
2017-12-03T09:14:23.060Z,79.90
2017-12-03T09:16:50.518Z,80.10
2017-12-03T09:19:17.989Z,80.20
2017-12-03T09:21:45.434Z,80.20
2017-12-03T09:24:13.301Z,80.10
2017-12-03T09:26:41.673Z,80.10
2017-12-03T09:29:09.375Z,80.20
2017-12-03T09:31:36.897Z,80.40
2017-12-03T09:34:04.337Z,80.50
2017-12-03T09:36:31.909Z,80.50
2017-12-03T09:38:59.354Z,80.60
2017-12-03T09:41:26.869Z,80.40
2017-12-03T09:43:55.850Z,80.30
2017-12-03T09:46:23.443Z,80.20
2017-12-03T09:48:50.891Z,80.10
2017-12-03T09:51:19.633Z,80.40
2017-12-03T09:53:47.178Z,80.40
2017-12-03T09:56:14.632Z,80.70
2017-12-03T09:58:42.568Z,80.80
2017-12-03T10:01:10.021Z,80.60
2017-12-03T10:03:39.117Z,80.50
2017-12-03T10:06:07.363Z,80.40
2017-12-03T10:08:34.884Z,80.40
2017-12-03T10:11:05.852Z,80.50
2017-12-03T10:13:33.308Z,80.30
2017-12-03T10:16:00.839Z,80.40
2017-12-03T10:18:28.300Z,80.50
2017-12-03T10:20:55.771Z,80.30
2017-12-03T10:23:23.232Z,80.30
2017-12-03T10:25:50.805Z,80.30
2017-12-03T10:28:18.848Z,80.10
2017-12-03T10:30:46.317Z,80.10
2017-12-03T10:33:13.802Z,80.10
2017-12-03T10:35:41.409Z,80.10
2017-12-03T10:38:22.833Z,80.00
2017-12-03T10:40:50.324Z,80.20
2017-12-03T10:43:18.230Z,80.50
2017-12-03T10:45:45.927Z,80.40
2017-12-03T10:48:13.374Z,80.20
2017-12-03T10:50:41.451Z,80.20
2017-12-03T10:53:10.260Z,80.40
2017-12-03T10:55:38.565Z,80.50
2017-12-03T10:58:06.146Z,80.50
2017-12-03T11:00:34.815Z,80.60
2017-12-03T11:03:02.933Z,80.70
2017-12-03T11:05:31.277Z,81.00
2017-12-03T11:07:58.740Z,81.00
2017-12-03T11:10:26.196Z,81.10
2017-12-03T11:12:53.657Z,81.30
2017-12-03T11:15:21.294Z,81.20
2017-12-03T11:17:49.106Z,81.20
2017-12-03T11:20:16.567Z,81.30
2017-12-03T11:22:44.277Z,81.10
2017-12-03T11:25:11.744Z,81.10
2017-12-03T11:27:39.294Z,80.90
2017-12-03T11:30:06.778Z,81.10
2017-12-03T11:32:34.226Z,81.10
2017-12-03T11:35:01.902Z,81.10
2017-12-03T11:37:29.373Z,81.10
2017-12-03T11:39:57.845Z,82.00
2017-12-03T11:42:25.311Z,81.40
2017-12-03T11:44:55.402Z,81.60
2017-12-03T11:47:22.938Z,81.60
2017-12-03T11:49:51.243Z,81.90
2017-12-03T11:52:18.980Z,82.00
2017-12-03T11:54:46.638Z,82.00
2017-12-03T11:57:14.238Z,81.60
2017-12-03T11:59:43.294Z,81.70
2017-12-03T12:02:12.402Z,81.30
2017-12-03T12:04:42.103Z,81.10
2017-12-03T12:07:09.597Z,81.00
2017-12-03T12:09:37.078Z,81.80
2017-12-03T12:12:04.829Z,81.20
2017-12-03T12:14:32.316Z,81.60
2017-12-03T12:17:00.049Z,81.40
2017-12-03T12:19:27.925Z,81.40
2017-12-03T12:21:56.239Z,81.20
2017-12-03T12:24:23.841Z,81.20
2017-12-03T12:26:51.434Z,81.30
2017-12-03T12:29:18.914Z,81.80
2017-12-03T12:31:46.408Z,81.70
2017-12-03T12:34:13.979Z,81.80
2017-12-03T12:36:41.692Z,81.70
2017-12-03T12:39:09.517Z,81.50
2017-12-03T12:41:37.061Z,81.30
2017-12-03T12:44:05.502Z,81.70
2017-12-03T12:46:33.673Z,81.40
2017-12-03T12:49:03.157Z,81.20
2017-12-03T12:51:30.992Z,81.40
2017-12-03T12:53:59.271Z,81.50
2017-12-03T12:56:27.528Z,81.70
2017-12-03T12:58:55.661Z,81.60
2017-12-03T13:01:23.170Z,82.00
2017-12-03T13:03:51.426Z,82.00
2017-12-03T13:06:18.900Z,87.60
2017-12-03T13:08:47.127Z,88.60
2017-12-03T13:11:14.635Z,86.40
2017-12-03T13:13:42.095Z,86.00
2017-12-03T13:16:10.415Z,86.60
2017-12-03T13:18:37.986Z,86.10
2017-12-03T13:21:05.568Z,85.50
2017-12-03T13:23:33.067Z,84.60
2017-12-03T13:26:01.612Z,85.00
2017-12-03T13:28:29.137Z,84.30
2017-12-03T13:30:57.399Z,84.40
2017-12-03T13:33:24.937Z,83.90
2017-12-03T13:35:52.433Z,83.80
2017-12-03T13:38:19.983Z,83.90
2017-12-03T13:40:47.506Z,83.50
2017-12-03T13:43:16.674Z,83.30
2017-12-03T13:45:44.516Z,82.70
2017-12-03T13:48:12.533Z,82.60
2017-12-03T13:50:40.909Z,83.00
2017-12-03T13:53:09.182Z,83.00
2017-12-03T13:55:36.674Z,82.40
2017-12-03T13:58:05.512Z,82.60
2017-12-03T14:00:33.575Z,82.30
2017-12-03T14:03:01.757Z,82.20
2017-12-03T14:05:29.202Z,82.00
2017-12-03T14:07:56.677Z,81.70
2017-12-03T14:10:24.172Z,82.10
2017-12-03T14:12:51.745Z,82.00
2017-12-03T14:15:19.317Z,82.20
2017-12-03T14:17:46.864Z,82.10
2017-12-03T14:20:14.466Z,82.20
2017-12-03T14:22:41.994Z,82.10
2017-12-03T14:25:09.607Z,82.30
2017-12-03T14:27:37.916Z,83.10
2017-12-03T14:30:05.354Z,82.50
2017-12-03T14:32:32.975Z,82.50
2017-12-03T14:35:00.428Z,82.30
2017-12-03T14:37:28.390Z,82.20
2017-12-03T14:39:55.918Z,82.20
2017-12-03T14:42:24.209Z,82.40
2017-12-03T14:44:52.466Z,82.50
2017-12-03T14:47:23.541Z,82.40
2017-12-03T14:49:51.513Z,82.40
2017-12-03T14:52:19.028Z,82.40
2017-12-03T14:54:46.516Z,82.30
2017-12-03T14:57:13.970Z,81.90
2017-12-03T14:59:42.131Z,81.90
2017-12-03T15:02:10.387Z,82.80
2017-12-03T15:04:37.878Z,82.10
2017-12-03T15:07:05.358Z,82.40
2017-12-03T15:09:32.893Z,82.00
2017-12-03T15:12:00.358Z,82.10
2017-12-03T15:14:27.988Z,81.90
2017-12-03T15:16:56.277Z,82.00
2017-12-03T15:19:23.779Z,81.90
2017-12-03T15:21:51.265Z,82.00
2017-12-03T15:24:18.812Z,82.20
2017-12-03T15:26:46.425Z,82.40
2017-12-03T15:29:13.868Z,82.10
2017-12-03T15:31:41.832Z,82.20
2017-12-03T15:34:09.586Z,82.30
2017-12-03T15:36:37.067Z,82.40
2017-12-03T15:39:05.627Z,83.10
2017-12-03T15:41:33.184Z,82.80
2017-12-03T15:44:01.090Z,82.90
2017-12-03T15:46:28.938Z,83.00
2017-12-03T15:48:56.477Z,83.10
2017-12-03T15:51:23.977Z,83.40
2017-12-03T15:53:51.588Z,83.40
2017-12-03T15:56:19.048Z,83.50
2017-12-03T15:58:46.611Z,83.60
2017-12-03T16:01:14.605Z,83.50
2017-12-03T16:03:42.066Z,83.70
2017-12-03T16:06:09.684Z,83.70
2017-12-03T16:08:37.453Z,83.70
2017-12-03T16:11:05.105Z,83.60
2017-12-03T16:13:32.704Z,83.50
2017-12-03T16:16:00.337Z,83.40
2017-12-03T16:18:28.040Z,83.50
2017-12-03T16:20:56.349Z,84.10
2017-12-03T16:23:23.864Z,83.70
2017-12-03T16:25:51.407Z,83.80
2017-12-03T16:28:18.948Z,83.70
2017-12-03T16:30:46.508Z,83.80
2017-12-03T16:33:15.530Z,84.00
2017-12-03T16:35:43.340Z,84.00
2017-12-03T16:38:10.951Z,84.00
2017-12-03T16:40:38.586Z,84.10
2017-12-03T16:43:07.072Z,84.20
2017-12-03T16:45:34.945Z,84.40
2017-12-03T16:48:02.765Z,84.40
2017-12-03T16:50:31.077Z,84.70
2017-12-03T16:52:58.547Z,84.20
2017-12-03T16:55:26.088Z,84.20
2017-12-03T16:57:53.651Z,84.50
2017-12-03T17:00:22.074Z,84.00
2017-12-03T17:02:49.688Z,83.90
2017-12-03T17:05:17.141Z,84.00
2017-12-03T17:07:44.673Z,84.00
2017-12-03T17:10:12.978Z,84.40
2017-12-03T17:12:40.497Z,83.90
2017-12-03T17:15:08.774Z,84.40
2017-12-03T17:17:37.330Z,85.20
2017-12-03T17:20:04.894Z,84.20
2017-12-03T17:22:32.514Z,84.40
2017-12-03T17:25:00.074Z,84.60
2017-12-03T17:27:27.834Z,84.60
2017-12-03T17:29:56.287Z,84.60
2017-12-03T17:32:24.506Z,85.30
2017-12-03T17:34:52.148Z,84.70
2017-12-03T17:37:19.660Z,84.90
2017-12-03T17:39:47.878Z,85.00
2017-12-03T17:42:15.356Z,84.50
2017-12-03T17:44:43.655Z,84.60
2017-12-03T17:47:11.289Z,84.40
2017-12-03T17:49:39.050Z,84.50
2017-12-03T17:52:06.561Z,84.50
2017-12-03T17:54:34.809Z,85.00
2017-12-03T17:57:02.365Z,84.60
2017-12-03T17:59:29.974Z,84.60
2017-12-03T18:01:58.417Z,85.20
2017-12-03T18:04:26.633Z,85.40
2017-12-03T18:06:54.202Z,85.00
2017-12-03T18:09:21.658Z,85.10
2017-12-03T18:11:49.366Z,85.20
2017-12-03T18:14:18.083Z,85.50
2017-12-03T18:16:45.675Z,85.10
2017-12-03T18:19:13.838Z,85.10
2017-12-03T18:21:41.607Z,85.00
2017-12-03T18:24:09.397Z,85.00
2017-12-03T18:26:36.924Z,85.00
2017-12-03T18:29:04.565Z,85.00
2017-12-03T18:31:32.048Z,85.10
2017-12-03T18:33:59.514Z,85.20
2017-12-03T18:36:27.093Z,85.20
2017-12-03T18:38:54.590Z,85.20
2017-12-03T18:41:23.313Z,85.90
2017-12-03T18:43:51.117Z,85.40
2017-12-03T18:46:19.244Z,85.30
2017-12-03T18:48:46.721Z,85.40
2017-12-03T18:51:14.196Z,85.60
2017-12-03T18:53:41.696Z,85.70
2017-12-03T18:56:09.171Z,85.70
2017-12-03T18:58:36.932Z,85.90
2017-12-03T19:01:05.230Z,85.90
2017-12-03T19:03:32.867Z,86.00
2017-12-03T19:06:00.344Z,86.00
2017-12-03T19:08:27.849Z,85.90
2017-12-03T19:10:56.569Z,86.20
2017-12-03T19:13:24.137Z,85.80
2017-12-03T19:15:51.584Z,85.80
2017-12-03T19:18:19.263Z,85.90
2017-12-03T19:20:47.126Z,85.90
2017-12-03T19:23:14.577Z,85.90
2017-12-03T19:25:42.112Z,86.00
2017-12-03T19:28:09.566Z,86.00
2017-12-03T19:30:37.551Z,86.00
2017-12-03T19:33:05.211Z,86.00
2017-12-03T19:35:32.658Z,86.10
2017-12-03T19:38:01.162Z,86.70
2017-12-03T19:40:28.648Z,86.20
2017-12-03T19:42:58.189Z,86.40
2017-12-03T19:45:27.016Z,86.50
2017-12-03T19:47:56.901Z,87.20
2017-12-03T19:50:24.779Z,86.70
2017-12-03T19:52:54.707Z,86.90
2017-12-03T19:55:23.457Z,86.90
2017-12-03T19:57:51.291Z,86.90
2017-12-03T20:00:18.731Z,86.90
2017-12-03T20:02:46.781Z,86.90
2017-12-03T20:05:14.332Z,86.80
2017-12-03T20:07:42.004Z,86.80
2017-12-03T20:10:10.168Z,86.70
2017-12-03T20:12:38.975Z,87.10
2017-12-03T20:15:06.517Z,86.70
2017-12-03T20:17:34.028Z,86.50
2017-12-03T20:20:02.633Z,87.20
2017-12-03T20:22:30.183Z,86.40
2017-12-03T20:24:58.431Z,86.50
2017-12-03T20:27:26.111Z,86.00
2017-12-03T20:29:53.742Z,86.00
2017-12-03T20:32:21.281Z,86.00
2017-12-03T20:34:48.928Z,86.00
2017-12-03T20:37:16.599Z,86.00
2017-12-03T20:39:44.819Z,86.00
2017-12-03T20:42:13.134Z,87.00
2017-12-03T20:44:41.107Z,85.90
2017-12-03T20:47:09.181Z,86.00
2017-12-03T20:49:36.630Z,86.20
2017-12-03T20:52:04.322Z,86.10
2017-12-03T20:54:31.858Z,86.10
2017-12-03T20:56:59.342Z,86.10
2017-12-03T20:59:26.829Z,86.30
2017-12-03T21:01:55.833Z,86.80
2017-12-03T21:04:23.381Z,86.30
2017-12-03T21:06:52.858Z,86.90
2017-12-03T21:09:20.947Z,86.50
2017-12-03T21:11:48.496Z,86.50
2017-12-03T21:14:15.967Z,86.50
2017-12-03T21:16:43.405Z,86.60
2017-12-03T21:19:11.028Z,86.70
2017-12-03T21:21:39.338Z,87.20
2017-12-03T21:24:06.813Z,86.70
2017-12-03T21:26:34.373Z,86.80
2017-12-03T21:29:02.723Z,87.80
2017-12-03T21:31:30.180Z,86.70
2017-12-03T21:33:57.893Z,86.90
2017-12-03T21:36:26.502Z,87.50
2017-12-03T21:38:54.115Z,86.90
2017-12-03T21:41:21.532Z,87.10
2017-12-03T21:43:49.689Z,87.10
2017-12-03T21:46:17.246Z,87.10
2017-12-03T21:48:44.748Z,87.20
2017-12-03T21:51:13.090Z,87.60
2017-12-03T21:53:40.641Z,87.20
2017-12-03T21:56:08.637Z,87.20
2017-12-03T21:58:36.135Z,87.20
2017-12-03T22:01:04.802Z,87.70
2017-12-03T22:03:32.775Z,87.30
2017-12-03T22:06:00.283Z,87.30
2017-12-03T22:08:28.134Z,87.10
2017-12-03T22:10:55.652Z,87.10
2017-12-03T22:13:23.289Z,87.10
2017-12-03T22:15:51.227Z,87.10
2017-12-03T22:18:18.749Z,87.00
2017-12-03T22:20:47.174Z,87.50
2017-12-03T22:23:14.726Z,87.00
2017-12-03T22:25:42.936Z,87.10
2017-12-03T22:28:10.530Z,87.00
2017-12-03T22:30:38.772Z,87.50
2017-12-03T22:33:06.453Z,87.10
2017-12-03T22:35:34.139Z,87.20
2017-12-03T22:38:01.590Z,87.00
2017-12-03T22:40:29.831Z,87.30
2017-12-03T22:42:58.740Z,87.30
2017-12-03T22:45:26.206Z,86.90
2017-12-03T22:47:54.495Z,87.30
2017-12-03T22:50:21.951Z,86.90
2017-12-03T22:52:50.704Z,87.40
2017-12-03T22:55:18.221Z,87.00
2017-12-03T22:57:45.728Z,87.00
2017-12-03T23:00:13.237Z,87.10
2017-12-03T23:02:41.242Z,87.10
2017-12-03T23:05:08.738Z,87.10
2017-12-03T23:07:36.991Z,87.40
2017-12-03T23:10:05.299Z,88.00
2017-12-03T23:12:33.133Z,87.00
2017-12-03T23:15:03.122Z,87.30
2017-12-03T23:17:30.677Z,86.80
2017-12-03T23:19:58.225Z,87.00
2017-12-03T23:22:25.763Z,87.00
2017-12-03T23:24:53.632Z,87.00
2017-12-03T23:27:21.078Z,86.90
2017-12-03T23:29:48.600Z,87.00
2017-12-03T23:32:16.208Z,87.00
2017-12-03T23:34:43.956Z,87.00
2017-12-03T23:37:12.263Z,87.20
2017-12-03T23:39:40.277Z,86.80
2017-12-03T23:42:08.595Z,86.80
2017-12-03T23:44:36.543Z,86.30
2017-12-03T23:47:04.340Z,85.80
2017-12-03T23:49:31.952Z,85.50
2017-12-03T23:52:00.275Z,85.90
2017-12-03T23:54:27.726Z,85.40
2017-12-03T23:56:55.203Z,85.40
2017-12-03T23:59:24.319Z,86.20
